createdAt,value
2018-08-16T00:01:48.391Z,3.70
2018-08-16T00:04:53.823Z,3.00
2018-08-16T00:07:58.885Z,3.00
2018-08-16T00:11:03.967Z,3.30
2018-08-16T00:14:09.013Z,3.83
2018-08-16T00:17:14.078Z,3.70
2018-08-16T00:20:19.115Z,3.03
2018-08-16T00:23:24.136Z,2.70
2018-08-16T00:26:29.155Z,3.53
2018-08-16T00:29:34.195Z,3.20
2018-08-16T00:32:39.390Z,4.13
2018-08-16T00:35:44.403Z,6.30
2018-08-16T00:38:49.432Z,3.43
2018-08-16T00:41:54.463Z,3.90
2018-08-16T00:44:59.475Z,5.07
2018-08-16T00:48:04.548Z,3.13
2018-08-16T00:51:09.559Z,3.30
2018-08-16T00:54:14.581Z,3.17
2018-08-16T00:57:19.586Z,5.30
2018-08-16T01:00:24.606Z,4.43
2018-08-16T01:03:29.648Z,3.90
2018-08-16T01:06:34.670Z,4.90
2018-08-16T01:09:39.679Z,3.07
2018-08-16T01:12:44.672Z,3.00
2018-08-16T01:15:49.662Z,2.73
2018-08-16T01:18:54.666Z,2.97
2018-08-16T01:21:59.703Z,4.27
2018-08-16T01:25:05.735Z,3.30
2018-08-16T01:28:10.755Z,3.27
2018-08-16T01:31:15.847Z,3.37
2018-08-16T01:34:20.826Z,3.50
2018-08-16T01:37:25.853Z,4.50
2018-08-16T01:40:30.844Z,4.73
2018-08-16T01:43:35.839Z,3.43
2018-08-16T01:46:40.823Z,5.93
2018-08-16T01:49:45.810Z,3.07
2018-08-16T01:52:50.815Z,3.37
2018-08-16T01:55:55.819Z,4.03
2018-08-16T01:59:00.818Z,3.20
2018-08-16T02:02:05.860Z,3.30
2018-08-16T02:05:10.985Z,3.90
2018-08-16T02:08:15.928Z,3.73
2018-08-16T02:11:20.925Z,3.30
2018-08-16T02:14:25.915Z,2.83
2018-08-16T02:17:30.902Z,4.23
2018-08-16T02:20:35.915Z,2.97
2018-08-16T02:27:20.413Z,2.90
2018-08-16T02:30:25.381Z,4.47
2018-08-16T02:33:30.303Z,2.90
2018-08-16T02:36:35.293Z,3.40
2018-08-16T02:39:40.226Z,3.20
2018-08-16T02:42:45.173Z,2.97
2018-08-16T02:45:50.136Z,7.40
2018-08-16T02:48:55.069Z,4.13
2018-08-16T02:52:00.069Z,3.27
2018-08-16T02:55:05.810Z,3.03
2018-08-16T02:58:10.786Z,4.37
2018-08-16T03:01:15.768Z,3.33
2018-08-16T03:04:20.721Z,3.57
2018-08-16T03:07:25.682Z,3.30
2018-08-16T03:10:30.632Z,4.33
2018-08-16T03:13:35.641Z,3.03
2018-08-16T03:16:40.610Z,3.97
2018-08-16T03:19:45.545Z,3.90
2018-08-16T03:22:50.493Z,3.87
2018-08-16T03:25:55.441Z,3.37
2018-08-16T03:29:00.407Z,4.60
2018-08-16T03:32:05.401Z,4.10
2018-08-16T03:35:10.388Z,3.27
2018-08-16T03:38:15.305Z,3.53
2018-08-16T03:41:20.318Z,4.33
2018-08-16T03:44:25.261Z,3.83
2018-08-16T03:47:30.228Z,4.53
2018-08-16T03:50:35.199Z,3.97
2018-08-16T03:53:40.369Z,4.33
2018-08-16T03:56:45.337Z,3.00
2018-08-16T03:59:50.312Z,4.13
2018-08-16T04:02:55.281Z,3.60
2018-08-16T04:06:00.241Z,4.50
2018-08-16T04:09:05.765Z,4.23
2018-08-16T04:12:10.730Z,3.90
2018-08-16T04:15:15.718Z,3.60
2018-08-16T04:18:20.678Z,5.47
2018-08-16T04:21:25.625Z,3.10
2018-08-16T04:24:30.565Z,3.57
2018-08-16T04:27:35.510Z,3.63
2018-08-16T04:30:40.477Z,3.50
2018-08-16T04:33:45.440Z,2.90
2018-08-16T04:36:50.397Z,3.30
2018-08-16T04:39:55.368Z,5.60
2018-08-16T04:43:00.300Z,5.57
2018-08-16T04:46:05.273Z,4.90
2018-08-16T04:49:10.206Z,3.40
2018-08-16T04:52:15.178Z,4.73
2018-08-16T04:55:20.165Z,4.50
2018-08-16T04:58:25.163Z,4.77
2018-08-16T05:01:30.470Z,4.13
2018-08-16T05:04:35.457Z,6.00
2018-08-16T05:07:40.551Z,6.67
2018-08-16T05:10:45.569Z,5.27
2018-08-16T05:13:50.601Z,5.50
2018-08-16T05:16:55.579Z,6.53
2018-08-16T05:20:38.218Z,4.60
2018-08-16T05:23:43.263Z,3.73
2018-08-16T05:26:48.261Z,3.60
2018-08-16T05:29:53.241Z,5.70
2018-08-16T05:32:58.238Z,4.93
2018-08-16T05:36:03.250Z,6.23
2018-08-16T05:39:09.265Z,5.97
2018-08-16T05:42:14.333Z,5.83
2018-08-16T05:45:19.331Z,5.93
2018-08-16T05:48:24.334Z,6.27
2018-08-16T05:51:29.616Z,12.63
2018-08-16T05:54:34.614Z,15.87
2018-08-16T05:57:39.815Z,16.23
2018-08-16T06:00:44.766Z,15.23
2018-08-16T06:03:49.730Z,14.63
2018-08-16T06:06:54.709Z,25.90
2018-08-16T06:09:59.677Z,17.97
2018-08-16T06:13:05.098Z,17.17
2018-08-16T06:16:10.056Z,16.97
2018-08-16T06:19:15.037Z,30.00
2018-08-16T06:22:19.980Z,18.57
2018-08-16T06:25:24.950Z,19.67
2018-08-16T06:28:29.913Z,22.70
2018-08-16T06:31:34.845Z,28.10
2018-08-16T06:34:39.793Z,22.23
2018-08-16T06:37:44.761Z,22.13
2018-08-16T06:40:49.714Z,23.73
2018-08-16T06:43:54.725Z,28.67
2018-08-16T06:46:59.665Z,27.03
2018-08-16T06:50:04.825Z,31.13
2018-08-16T06:53:09.808Z,25.37
2018-08-16T06:56:14.810Z,27.77
2018-08-16T06:59:19.770Z,20.50
2018-08-16T07:02:24.756Z,24.33
2018-08-16T07:05:29.705Z,19.83
2018-08-16T07:08:34.678Z,22.83
2018-08-16T07:11:39.878Z,16.17
2018-08-16T07:14:45.177Z,11.90
2018-08-16T07:17:50.345Z,16.73
2018-08-16T07:20:55.310Z,22.03
2018-08-16T07:24:00.298Z,6.17
2018-08-16T07:27:05.282Z,2.93
2018-08-16T07:30:10.266Z,5.73
2018-08-16T07:33:15.241Z,3.93
2018-08-16T07:36:20.226Z,4.03
2018-08-16T07:39:25.229Z,4.43
2018-08-16T07:42:30.169Z,5.40
2018-08-16T07:45:35.183Z,5.90
2018-08-16T07:48:40.159Z,5.43
2018-08-16T07:51:45.364Z,3.33
2018-08-16T07:54:50.150Z,5.97
2018-08-16T07:57:55.137Z,3.50
2018-08-16T08:01:00.105Z,5.03
2018-08-16T08:04:05.112Z,7.00
2018-08-16T08:07:17.580Z,3.47
2018-08-16T08:10:22.588Z,4.07
2018-08-16T08:13:27.553Z,4.87
2018-08-16T08:16:32.525Z,4.90
2018-08-16T08:19:37.514Z,3.17
2018-08-16T08:22:42.818Z,3.57
2018-08-16T08:25:47.813Z,3.27
2018-08-16T08:28:52.780Z,3.73
2018-08-16T08:31:57.734Z,3.90
2018-08-16T08:35:02.753Z,3.87
2018-08-16T08:38:13.214Z,3.87
2018-08-16T08:41:18.145Z,3.70
2018-08-16T08:44:26.283Z,3.77
2018-08-16T08:47:37.030Z,3.97
2018-08-16T08:50:42.005Z,3.63
2018-08-16T08:55:08.257Z,3.30
2018-08-16T08:58:24.607Z,4.00
2018-08-16T09:01:29.633Z,4.23
2018-08-16T09:04:35.222Z,3.23
2018-08-16T09:07:40.215Z,3.13
2018-08-16T09:10:58.240Z,3.77
2018-08-16T09:14:14.769Z,4.53
2018-08-16T09:17:19.749Z,3.50
2018-08-16T09:20:24.734Z,3.10
2018-08-16T09:23:29.706Z,2.90
2018-08-16T09:26:40.761Z,5.87
2018-08-16T09:29:56.882Z,3.67
2018-08-16T09:33:13.497Z,3.50
2018-08-16T09:36:18.475Z,4.97
2018-08-16T09:39:23.546Z,4.83
2018-08-16T09:42:28.414Z,6.13
2018-08-16T09:47:00.705Z,3.53
2018-08-16T09:50:05.689Z,3.70
2018-08-16T09:53:10.667Z,3.63
2018-08-16T09:56:15.626Z,4.73
2018-08-16T09:59:20.581Z,3.60
2018-08-16T10:02:25.570Z,6.33
2018-08-16T10:05:30.583Z,4.73
2018-08-16T10:08:35.528Z,3.90
2018-08-16T10:11:40.533Z,3.97
2018-08-16T10:14:45.501Z,3.03
2018-08-16T10:17:50.470Z,3.00
2018-08-16T10:20:55.477Z,3.03
2018-08-16T10:24:00.524Z,6.60
2018-08-16T10:27:05.552Z,4.00
2018-08-16T10:30:10.457Z,3.97
2018-08-16T10:33:15.396Z,4.77
2018-08-16T10:36:20.469Z,4.13
2018-08-16T10:39:25.403Z,2.90
2018-08-16T10:42:30.365Z,6.57
2018-08-16T10:45:35.316Z,2.70
2018-08-16T10:48:40.286Z,6.23
2018-08-16T10:51:45.257Z,3.23
2018-08-16T10:54:50.262Z,3.73
2018-08-16T10:57:55.242Z,4.57
2018-08-16T11:01:00.238Z,3.00
2018-08-16T11:04:05.533Z,2.97
2018-08-16T11:07:10.517Z,3.00
2018-08-16T11:10:15.489Z,3.33
2018-08-16T11:13:20.610Z,2.87
2018-08-16T11:16:25.569Z,3.43
2018-08-16T11:19:30.546Z,3.77
2018-08-16T11:22:36.356Z,4.77
2018-08-16T11:25:41.313Z,3.73
2018-08-16T11:28:46.270Z,4.10
2018-08-16T11:31:51.354Z,2.60
2018-08-16T11:34:56.309Z,6.93
2018-08-16T11:38:01.301Z,3.60
2018-08-16T11:41:06.294Z,3.03
2018-08-16T11:44:11.244Z,3.97
2018-08-16T11:47:16.211Z,2.70
2018-08-16T11:50:21.172Z,3.53
2018-08-16T11:53:26.130Z,5.10
2018-08-16T11:56:31.077Z,4.93
2018-08-16T11:59:36.038Z,3.23
2018-08-16T12:02:41.035Z,3.57
2018-08-16T12:05:45.965Z,3.10
2018-08-16T12:08:50.901Z,2.70
2018-08-16T12:11:55.855Z,2.70
2018-08-16T12:15:00.812Z,3.83
2018-08-16T12:18:05.909Z,2.57
2018-08-16T12:21:10.932Z,3.70
2018-08-16T12:24:15.889Z,4.60
2018-08-16T12:27:20.873Z,4.03
2018-08-16T12:30:25.837Z,5.00
2018-08-16T12:33:31.338Z,3.20
2018-08-16T12:36:36.333Z,3.57
2018-08-16T12:39:41.321Z,3.10
2018-08-16T12:42:46.327Z,2.40
2018-08-16T12:45:51.281Z,2.93
2018-08-16T12:48:56.289Z,3.73
2018-08-16T12:52:01.297Z,4.57
2018-08-16T12:55:06.306Z,3.10
2018-08-16T12:58:11.344Z,3.17
2018-08-16T13:01:16.322Z,3.77
2018-08-16T13:04:21.325Z,4.33
2018-08-16T13:07:26.377Z,3.70
2018-08-16T13:10:31.377Z,3.33
2018-08-16T13:13:36.396Z,3.80
2018-08-16T13:16:41.383Z,4.37
2018-08-16T13:19:46.345Z,3.63
2018-08-16T13:22:51.330Z,3.47
2018-08-16T13:25:56.339Z,3.00
2018-08-16T13:29:01.326Z,4.17
2018-08-16T13:32:06.318Z,5.00
2018-08-16T13:35:11.275Z,3.73
2018-08-16T13:38:16.282Z,3.30
2018-08-16T13:41:21.447Z,3.63
2018-08-16T13:44:26.310Z,5.07
2018-08-16T13:47:31.294Z,3.57
2018-08-16T13:50:36.296Z,3.43
2018-08-16T13:53:41.264Z,3.20
2018-08-16T13:56:46.297Z,3.23
2018-08-16T13:59:51.278Z,4.77
2018-08-16T14:02:56.293Z,4.87
2018-08-16T14:06:01.262Z,3.10
2018-08-16T14:09:07.817Z,3.20
2018-08-16T14:12:12.795Z,4.27
2018-08-16T14:15:17.770Z,3.53
2018-08-16T14:18:22.774Z,4.30
2018-08-16T14:21:27.785Z,3.40
2018-08-16T14:24:32.777Z,3.77
2018-08-16T14:27:37.777Z,3.67
2018-08-16T14:30:42.771Z,3.83
2018-08-16T14:33:47.726Z,4.37
2018-08-16T14:36:52.699Z,6.17
2018-08-16T14:39:57.671Z,5.37
2018-08-16T14:43:02.657Z,4.37
2018-08-16T14:46:07.620Z,3.80
2018-08-16T14:49:12.565Z,4.03
2018-08-16T14:52:17.525Z,3.80
2018-08-16T14:55:22.644Z,3.53
2018-08-16T14:58:27.618Z,3.40
2018-08-16T15:01:32.591Z,3.67
2018-08-16T15:04:37.566Z,4.23
2018-08-16T15:07:42.676Z,3.40
2018-08-16T15:10:47.714Z,4.17
2018-08-16T15:13:52.679Z,5.17
2018-08-16T15:16:57.652Z,6.67
2018-08-16T15:20:02.687Z,4.13
2018-08-16T15:23:07.683Z,3.23
2018-08-16T15:26:12.678Z,4.13
2018-08-16T15:29:18.751Z,3.40
2018-08-16T15:32:23.828Z,4.30
2018-08-16T15:35:28.666Z,4.87
2018-08-16T15:38:33.619Z,4.43
2018-08-16T15:41:38.690Z,3.50
2018-08-16T15:44:43.670Z,6.13
2018-08-16T15:47:48.621Z,3.97
2018-08-16T15:50:53.568Z,3.50
2018-08-16T15:53:58.560Z,3.50
2018-08-16T15:57:03.550Z,3.40
2018-08-16T16:00:10.466Z,4.13
2018-08-16T16:03:15.457Z,3.70
2018-08-16T16:06:20.622Z,5.13
2018-08-16T16:09:25.505Z,4.70
2018-08-16T16:12:30.494Z,3.80
2018-08-16T16:15:35.501Z,4.70
2018-08-16T16:18:40.500Z,3.77
2018-08-16T16:21:45.514Z,3.63
2018-08-16T16:24:50.520Z,3.37
2018-08-16T16:27:55.529Z,6.40
2018-08-16T16:31:00.499Z,4.13
2018-08-16T16:34:06.130Z,4.47
2018-08-16T16:37:11.149Z,4.50
2018-08-16T16:40:17.207Z,3.77
2018-08-16T16:43:22.285Z,5.83
2018-08-16T16:46:27.281Z,4.33
2018-08-16T16:49:32.275Z,4.70
2018-08-16T16:52:37.278Z,3.97
2018-08-16T16:55:42.354Z,4.63
2018-08-16T16:58:47.371Z,5.13
2018-08-16T17:01:52.345Z,5.77
2018-08-16T17:04:57.386Z,5.43
2018-08-16T17:08:02.407Z,5.20
2018-08-16T17:11:07.654Z,4.00
2018-08-16T17:14:12.671Z,5.37
2018-08-16T17:17:17.642Z,4.23
2018-08-16T17:20:22.605Z,5.17
2018-08-16T17:23:27.580Z,3.80
2018-08-16T17:26:32.670Z,4.57
2018-08-16T17:29:37.532Z,3.30
2018-08-16T17:32:42.502Z,4.90
2018-08-16T17:35:47.498Z,3.43
2018-08-16T17:38:52.454Z,6.90
2018-08-16T17:41:57.418Z,5.73
2018-08-16T17:45:02.434Z,3.90
2018-08-16T17:48:08.099Z,4.63
2018-08-16T17:51:13.060Z,4.00
2018-08-16T17:54:18.135Z,3.47
2018-08-16T17:57:23.142Z,3.70
2018-08-16T18:00:28.157Z,4.90
2018-08-16T18:03:33.137Z,4.50
2018-08-16T18:06:38.138Z,4.43
2018-08-16T18:09:43.110Z,5.70
2018-08-16T18:12:48.065Z,4.73
2018-08-16T18:15:53.045Z,3.93
2018-08-16T18:18:58.117Z,6.13
2018-08-16T18:22:03.081Z,4.70
2018-08-16T18:25:08.312Z,4.13
2018-08-16T18:28:13.285Z,6.30
2018-08-16T18:31:18.274Z,3.87
2018-08-16T18:34:23.270Z,4.23
2018-08-16T18:37:28.257Z,6.53
2018-08-16T18:40:33.254Z,6.23
2018-08-16T18:43:38.466Z,4.27
2018-08-16T18:46:43.438Z,8.47
2018-08-16T18:49:48.401Z,11.00
2018-08-16T18:52:53.366Z,7.07
2018-08-16T18:55:58.378Z,5.93
2018-08-16T18:59:03.383Z,4.80
2018-08-16T19:02:08.357Z,4.30
2018-08-16T19:05:13.378Z,4.83
2018-08-16T19:08:18.268Z,5.10
2018-08-16T19:11:23.241Z,4.97
2018-08-16T19:14:28.213Z,5.40
2018-08-16T19:17:33.166Z,5.40
2018-08-16T19:20:38.152Z,5.70
2018-08-16T19:23:43.155Z,8.97
2018-08-16T19:26:48.119Z,8.13
2018-08-16T19:29:53.120Z,4.73
2018-08-16T19:32:58.034Z,6.20
2018-08-16T19:36:03.008Z,4.90
2018-08-16T19:39:09.858Z,5.73
2018-08-16T19:42:14.810Z,5.40
2018-08-16T19:45:19.793Z,7.13
2018-08-16T19:48:24.771Z,8.50
2018-08-16T19:51:29.701Z,6.40
2018-08-16T19:54:34.645Z,7.27
2018-08-16T19:57:39.620Z,6.83
2018-08-16T20:00:44.594Z,5.33
2018-08-16T20:03:49.758Z,5.70
2018-08-16T20:06:54.751Z,5.23
2018-08-16T20:09:59.772Z,5.40
2018-08-16T20:13:04.863Z,5.67
2018-08-16T20:16:09.825Z,6.57
2018-08-16T20:19:14.789Z,5.20
2018-08-16T20:22:20.297Z,6.80
2018-08-16T20:25:25.255Z,7.37
2018-08-16T20:28:30.234Z,6.47
2018-08-16T20:31:35.222Z,4.97
2018-08-16T20:34:40.221Z,8.10
2018-08-16T20:37:45.180Z,6.30
2018-08-16T20:40:50.135Z,5.40
2018-08-16T20:43:55.071Z,7.87
2018-08-16T20:47:00.097Z,5.67
2018-08-16T20:50:05.772Z,7.93
2018-08-16T20:53:10.709Z,6.97
2018-08-16T20:56:15.678Z,6.10
2018-08-16T20:59:20.627Z,9.73
2018-08-16T21:02:25.581Z,5.87
2018-08-16T21:05:30.534Z,7.10
2018-08-16T21:08:35.461Z,7.17
2018-08-16T21:11:40.445Z,6.87
2018-08-16T21:14:45.374Z,11.47
2018-08-16T21:17:50.316Z,7.87
2018-08-16T21:20:55.289Z,6.70
2018-08-16T21:24:00.231Z,7.80
2018-08-16T21:27:05.221Z,9.07
2018-08-16T21:30:10.181Z,6.97
2018-08-16T21:33:15.129Z,7.13
2018-08-16T21:36:20.069Z,6.37
2018-08-16T21:39:24.998Z,6.70
2018-08-16T21:42:29.945Z,5.63
2018-08-16T21:45:34.894Z,6.33
2018-08-16T21:48:39.855Z,7.23
2018-08-16T21:51:44.804Z,6.03
2018-08-16T21:54:49.765Z,5.73
2018-08-16T21:57:54.717Z,6.73
2018-08-16T22:05:08.275Z,10.43
2018-08-16T22:08:13.949Z,7.97
2018-08-16T22:11:19.293Z,6.37
2018-08-16T22:14:24.221Z,7.47
2018-08-16T22:17:29.169Z,6.03
2018-08-16T22:20:34.117Z,10.07
2018-08-16T22:23:39.075Z,7.17
2018-08-16T22:26:44.053Z,5.70
2018-08-16T22:29:48.982Z,7.30
2018-08-16T22:32:53.946Z,7.27
2018-08-16T22:35:58.923Z,5.43
2018-08-16T22:39:06.998Z,6.70
2018-08-16T22:42:11.953Z,6.93
2018-08-16T22:45:16.879Z,6.13
2018-08-16T22:48:21.993Z,8.70
2018-08-16T22:51:26.961Z,5.40
2018-08-16T22:54:31.896Z,6.70
2018-08-16T22:57:36.846Z,5.57
2018-08-16T23:00:41.818Z,5.07
2018-08-16T23:03:46.780Z,5.87
2018-08-16T23:06:51.714Z,5.30
2018-08-16T23:09:56.649Z,7.23
2018-08-16T23:13:01.589Z,9.10
2018-08-16T23:16:06.553Z,5.50
2018-08-16T23:19:11.502Z,6.10
2018-08-16T23:22:16.433Z,6.60
2018-08-16T23:25:21.361Z,7.80
2018-08-16T23:28:26.297Z,6.10
2018-08-16T23:31:31.225Z,5.87
2018-08-16T23:34:36.333Z,5.47
2018-08-16T23:37:41.309Z,5.60
2018-08-16T23:40:46.234Z,5.23
2018-08-16T23:43:51.171Z,5.30
2018-08-16T23:46:56.150Z,5.90
2018-08-16T23:50:01.154Z,7.90
2018-08-16T23:53:06.117Z,6.43
2018-08-16T23:56:11.033Z,5.83
2018-08-16T23:59:15.993Z,6.27
